createdAt,value
2018-12-25T00:01:16.122Z,14.53
2018-12-25T00:03:45.292Z,12.40
2018-12-25T00:06:14.358Z,12.57
2018-12-25T00:08:43.415Z,14.10
2018-12-25T00:11:12.507Z,13.20
2018-12-25T00:13:41.565Z,13.17
2018-12-25T00:16:10.631Z,14.73
2018-12-25T00:18:39.723Z,14.33
2018-12-25T00:21:08.781Z,16.30
2018-12-25T00:23:37.841Z,18.20
2018-12-25T00:26:07.022Z,16.80
2018-12-25T00:28:36.082Z,15.17
2018-12-25T00:31:05.144Z,17.30
2018-12-25T00:33:34.232Z,18.20
2018-12-25T00:36:03.296Z,18.03
2018-12-25T00:38:32.354Z,16.53
2018-12-25T00:41:01.489Z,15.33
2018-12-25T00:43:30.547Z,15.83
2018-12-25T00:45:59.605Z,13.90
2018-12-25T00:48:29.148Z,14.33
2018-12-25T00:50:58.215Z,14.30
2018-12-25T00:53:27.285Z,14.00
2018-12-25T00:55:56.450Z,14.13
2018-12-25T00:58:25.511Z,13.20
2018-12-25T01:00:54.575Z,13.30
2018-12-25T01:03:23.662Z,15.23
2018-12-25T01:05:52.714Z,15.97
2018-12-25T01:08:21.772Z,16.37
2018-12-25T01:10:50.878Z,17.10
2018-12-25T01:13:19.937Z,18.30
2018-12-25T01:15:48.998Z,16.00
2018-12-25T01:18:18.082Z,14.87
2018-12-25T01:20:47.145Z,15.63
2018-12-25T01:23:16.213Z,15.87
2018-12-25T01:25:45.305Z,15.20
2018-12-25T01:28:14.375Z,14.33
2018-12-25T01:30:43.436Z,15.00
2018-12-25T01:33:12.559Z,16.37
2018-12-25T01:35:41.622Z,14.40
2018-12-25T01:38:23.263Z,15.17
2018-12-25T01:40:52.314Z,15.67
2018-12-25T01:43:21.374Z,14.50
2018-12-25T01:45:50.459Z,13.53
2018-12-25T01:48:19.528Z,14.27
2018-12-25T01:50:48.593Z,14.03
2018-12-25T01:53:17.709Z,13.70
2018-12-25T01:55:46.785Z,13.53
2018-12-25T01:58:15.847Z,13.93
2018-12-25T02:00:44.959Z,12.80
2018-12-25T02:03:14.022Z,12.87
2018-12-25T02:05:43.098Z,12.70
2018-12-25T02:08:12.189Z,12.23
2018-12-25T02:10:41.246Z,12.87
2018-12-25T02:13:10.315Z,11.20
2018-12-25T02:15:39.433Z,12.17
2018-12-25T02:18:08.502Z,13.27
2018-12-25T02:20:37.561Z,12.73
2018-12-25T02:23:06.875Z,13.17
2018-12-25T02:25:35.933Z,13.53
2018-12-25T02:28:04.997Z,15.70
2018-12-25T02:30:34.080Z,14.00
2018-12-25T02:33:03.149Z,13.83
2018-12-25T02:35:32.214Z,12.70
2018-12-25T02:38:01.546Z,11.83
2018-12-25T02:40:30.599Z,11.60
2018-12-25T02:42:59.671Z,10.63
2018-12-25T02:45:28.769Z,10.40
2018-12-25T02:47:57.827Z,10.73
2018-12-25T02:50:26.880Z,10.03
2018-12-25T02:52:55.955Z,10.00
2018-12-25T02:55:25.051Z,11.27
2018-12-25T02:57:54.100Z,10.27
2018-12-25T03:00:23.201Z,10.00
2018-12-25T03:02:52.406Z,10.47
2018-12-25T03:05:21.330Z,10.73
2018-12-25T03:07:50.418Z,10.93
2018-12-25T03:10:19.485Z,10.73
2018-12-25T03:12:48.546Z,9.50
2018-12-25T03:15:17.620Z,9.60
2018-12-25T03:17:46.682Z,10.47
2018-12-25T03:20:15.748Z,10.43
2018-12-25T03:22:44.896Z,10.47
2018-12-25T03:25:13.957Z,9.83
2018-12-25T03:27:43.015Z,10.40
2018-12-25T03:30:12.102Z,11.27
2018-12-25T03:32:41.169Z,10.70
2018-12-25T03:35:10.226Z,10.47
2018-12-25T03:37:39.310Z,10.13
2018-12-25T03:40:08.370Z,9.23
2018-12-25T03:42:37.424Z,9.17
2018-12-25T03:45:06.507Z,8.10
2018-12-25T03:47:35.574Z,7.97
2018-12-25T03:50:10.448Z,8.03
2018-12-25T03:52:33.730Z,7.67
2018-12-25T03:55:02.756Z,8.83
2018-12-25T03:57:36.232Z,8.57
2018-12-25T04:00:05.296Z,9.33
2018-12-25T04:02:34.370Z,8.87
2018-12-25T04:05:03.669Z,9.47
2018-12-25T04:07:32.754Z,10.13
2018-12-25T04:10:01.794Z,9.37
2018-12-25T04:12:30.883Z,8.77
2018-12-25T04:14:59.949Z,7.87
2018-12-25T04:17:29.062Z,8.40
2018-12-25T04:19:58.138Z,8.80
2018-12-25T04:22:27.192Z,8.33
2018-12-25T04:24:56.242Z,8.53
2018-12-25T04:27:29.120Z,7.73
2018-12-25T04:29:58.193Z,8.27
2018-12-25T04:32:27.237Z,7.17
2018-12-25T04:34:56.335Z,7.70
2018-12-25T04:37:30.226Z,7.17
2018-12-25T04:39:59.303Z,8.10
2018-12-25T04:42:28.359Z,8.67
2018-12-25T04:44:57.410Z,8.70
2018-12-25T04:47:26.841Z,9.40
2018-12-25T04:49:55.894Z,8.50
2018-12-25T04:52:24.942Z,8.27
2018-12-25T04:54:54.012Z,8.03
2018-12-25T04:57:23.075Z,7.53
2018-12-25T04:59:52.127Z,7.13
2018-12-25T05:02:21.205Z,7.50
2018-12-25T05:04:50.263Z,7.13
2018-12-25T05:07:19.319Z,7.27
2018-12-25T05:09:48.409Z,8.60
2018-12-25T05:12:17.473Z,7.87
2018-12-25T05:14:46.537Z,7.33
2018-12-25T05:17:29.079Z,7.27
2018-12-25T05:19:58.123Z,7.60
2018-12-25T05:22:27.175Z,7.70
2018-12-25T05:24:56.330Z,7.23
2018-12-25T05:27:25.382Z,7.23
2018-12-25T05:29:54.449Z,6.60
2018-12-25T05:32:23.519Z,6.90
2018-12-25T05:34:52.571Z,7.03
2018-12-25T05:37:21.619Z,6.43
2018-12-25T05:39:50.694Z,6.23
2018-12-25T05:42:19.734Z,6.83
2018-12-25T05:44:48.787Z,7.60
2018-12-25T05:47:34.697Z,8.17
2018-12-25T05:50:03.745Z,8.07
2018-12-25T05:52:32.786Z,7.47
2018-12-25T05:55:01.883Z,7.93
2018-12-25T05:57:30.928Z,8.27
2018-12-25T05:59:59.986Z,9.20
2018-12-25T06:02:29.062Z,9.80
2018-12-25T06:04:58.118Z,8.00
2018-12-25T06:07:27.167Z,8.20
2018-12-25T06:09:56.485Z,8.27
2018-12-25T06:12:25.554Z,10.20
2018-12-25T06:14:54.606Z,8.47
2018-12-25T06:17:23.675Z,8.93
2018-12-25T06:19:52.741Z,8.97
2018-12-25T06:22:21.783Z,7.17
2018-12-25T06:24:50.879Z,8.00
2018-12-25T06:27:19.934Z,9.10
2018-12-25T06:29:48.996Z,8.77
2018-12-25T06:32:18.092Z,9.13
2018-12-25T06:34:47.150Z,8.20
2018-12-25T06:37:16.204Z,7.70
2018-12-25T06:39:45.290Z,8.13
2018-12-25T06:42:14.371Z,8.23
2018-12-25T06:44:43.439Z,7.90
2018-12-25T06:47:12.515Z,7.63
2018-12-25T06:49:41.575Z,8.60
2018-12-25T06:52:10.631Z,10.00
2018-12-25T06:54:39.741Z,12.07
2018-12-25T06:57:08.790Z,10.27
2018-12-25T06:59:37.856Z,11.50
2018-12-25T07:02:06.948Z,13.80
2018-12-25T07:04:36.002Z,16.30
2018-12-25T07:07:05.082Z,19.83
2018-12-25T07:09:34.239Z,18.17
2018-12-25T07:12:03.234Z,15.23
2018-12-25T07:14:32.287Z,14.47
2018-12-25T07:17:01.387Z,11.20
2018-12-25T07:19:30.448Z,10.80
2018-12-25T07:21:59.511Z,10.77
2018-12-25T07:24:28.616Z,10.80
2018-12-25T07:26:57.679Z,10.57
2018-12-25T07:29:26.735Z,9.40
2018-12-25T07:31:55.825Z,11.27
2018-12-25T07:34:24.891Z,11.87
2018-12-25T07:37:00.689Z,11.43
2018-12-25T07:39:29.753Z,13.70
2018-12-25T07:41:58.813Z,19.80
2018-12-25T07:44:27.905Z,22.80
2018-12-25T07:46:56.955Z,34.80
2018-12-25T07:49:26.031Z,24.37
2018-12-25T07:51:55.219Z,21.80
2018-12-25T07:54:24.288Z,19.87
2018-12-25T07:56:53.338Z,19.77
2018-12-25T07:59:22.452Z,23.23
2018-12-25T08:01:51.513Z,21.37
2018-12-25T08:04:20.567Z,18.57
2018-12-25T08:06:49.655Z,21.57
2018-12-25T08:09:18.719Z,18.20
2018-12-25T08:11:47.787Z,17.27
2018-12-25T08:14:17.121Z,16.23
2018-12-25T08:16:46.179Z,16.87
2018-12-25T08:19:15.228Z,19.43
2018-12-25T08:21:44.493Z,20.27
2018-12-25T08:24:13.562Z,19.27
2018-12-25T08:26:42.611Z,19.17
2018-12-25T08:29:11.723Z,17.83
2018-12-25T08:31:41.200Z,17.87
2018-12-25T08:34:10.606Z,18.53
2018-12-25T08:36:39.687Z,17.80
2018-12-25T08:39:08.750Z,19.53
2018-12-25T08:41:37.805Z,20.33
2018-12-25T08:44:06.908Z,26.73
2018-12-25T08:46:42.493Z,23.43
2018-12-25T08:49:11.571Z,23.07
2018-12-25T08:51:40.617Z,24.70
2018-12-25T08:54:09.686Z,26.07
2018-12-25T08:56:38.782Z,25.07
2018-12-25T09:02:11.974Z,31.97
2018-12-25T09:04:41.036Z,30.77
2018-12-25T09:07:10.084Z,30.60
2018-12-25T09:09:39.251Z,31.53
2018-12-25T09:12:08.325Z,35.73
2018-12-25T09:14:37.373Z,34.17
2018-12-25T09:17:06.463Z,36.23
2018-12-25T09:19:35.524Z,30.30
2018-12-25T09:22:04.588Z,28.17
2018-12-25T09:24:33.709Z,23.70
2018-12-25T09:27:03.785Z,23.60
2018-12-25T09:29:32.851Z,25.17
2018-12-25T09:32:01.947Z,29.67
2018-12-25T09:34:31.023Z,26.27
2018-12-25T09:37:00.082Z,24.33
2018-12-25T09:39:29.183Z,25.33
2018-12-25T09:41:58.230Z,28.10
2018-12-25T09:44:27.298Z,27.37
2018-12-25T09:46:56.412Z,31.03
2018-12-25T09:49:25.470Z,32.20
2018-12-25T09:51:54.853Z,35.37
2018-12-25T09:54:23.630Z,36.70
2018-12-25T09:56:52.688Z,39.00
2018-12-25T09:59:21.751Z,39.27
2018-12-25T10:01:50.849Z,41.50
2018-12-25T10:04:20.272Z,34.70
2018-12-25T10:06:49.319Z,32.80
2018-12-25T10:09:18.722Z,31.77
2018-12-25T10:11:47.775Z,31.37
2018-12-25T10:14:16.841Z,33.97
2018-12-25T10:16:56.550Z,37.60
2018-12-25T10:19:25.613Z,43.27
2018-12-25T10:22:02.771Z,40.00
2018-12-25T10:24:23.816Z,40.43
2018-12-25T10:26:52.883Z,37.80
2018-12-25T10:29:21.935Z,33.90
2018-12-25T10:31:51.036Z,27.50
2018-12-25T10:34:20.103Z,29.43
2018-12-25T10:37:12.152Z,30.10
2018-12-25T10:39:41.221Z,29.77
2018-12-25T10:42:10.287Z,30.67
2018-12-25T10:44:39.395Z,31.57
2018-12-25T10:47:08.460Z,29.40
2018-12-25T10:49:37.527Z,26.73
2018-12-25T10:52:11.447Z,24.93
2018-12-25T10:54:35.676Z,33.23
2018-12-25T10:57:04.744Z,53.37
2018-12-25T10:59:33.830Z,46.60
2018-12-25T11:02:02.895Z,35.33
2018-12-25T11:04:31.952Z,29.47
2018-12-25T11:07:01.059Z,42.50
2018-12-25T11:09:30.116Z,53.73
2018-12-25T11:11:59.171Z,56.47
2018-12-25T11:14:28.267Z,43.63
2018-12-25T11:16:57.334Z,29.73
2018-12-25T11:19:26.413Z,33.37
2018-12-25T11:21:55.502Z,27.10
2018-12-25T11:24:24.562Z,36.27
2018-12-25T11:26:53.650Z,38.57
2018-12-25T11:29:22.748Z,33.30
2018-12-25T11:31:51.815Z,48.53
2018-12-25T11:34:20.871Z,51.13
2018-12-25T11:36:49.996Z,41.47
2018-12-25T11:39:19.059Z,43.33
2018-12-25T11:41:48.127Z,41.07
2018-12-25T11:44:17.215Z,39.63
2018-12-25T11:46:46.275Z,46.20
2018-12-25T11:49:15.336Z,43.30
2018-12-25T11:51:44.484Z,40.63
2018-12-25T11:54:13.531Z,56.43
2018-12-25T11:56:50.200Z,50.00
2018-12-25T11:59:19.259Z,69.70
2018-12-25T12:01:48.333Z,67.90
2018-12-25T12:04:17.427Z,74.33
2018-12-25T12:06:46.495Z,82.43
2018-12-25T12:09:15.563Z,71.47
2018-12-25T12:11:44.666Z,68.83
2018-12-25T12:14:13.749Z,66.70
2018-12-25T12:16:44.697Z,59.87
2018-12-25T12:19:14.129Z,61.80
2018-12-25T12:21:43.197Z,63.17
2018-12-25T12:24:12.268Z,72.83
2018-12-25T12:26:41.364Z,74.57
2018-12-25T12:29:10.436Z,58.03
2018-12-25T12:31:39.500Z,62.97
2018-12-25T12:34:08.627Z,56.87
2018-12-25T12:36:37.695Z,61.23
2018-12-25T12:39:06.825Z,54.23
2018-12-25T12:41:35.853Z,53.53
2018-12-25T12:44:04.917Z,45.80
2018-12-25T12:46:33.983Z,49.67
2018-12-25T12:49:03.067Z,49.13
2018-12-25T12:51:32.133Z,49.30
2018-12-25T12:54:01.195Z,47.50
2018-12-25T12:56:30.321Z,39.67
2018-12-25T12:58:59.388Z,40.23
2018-12-25T13:01:28.456Z,36.00
2018-12-25T13:03:57.550Z,34.20
2018-12-25T13:06:26.610Z,33.43
2018-12-25T13:08:55.683Z,26.27
2018-12-25T13:11:24.775Z,28.07
2018-12-25T13:13:53.857Z,27.93
2018-12-25T13:16:22.928Z,27.97
2018-12-25T13:18:52.036Z,25.90
2018-12-25T13:21:21.087Z,27.30
2018-12-25T13:23:50.143Z,18.90
2018-12-25T13:26:19.223Z,20.83
2018-12-25T13:28:48.280Z,15.03
2018-12-25T13:31:17.375Z,14.90
2018-12-25T13:33:46.462Z,12.77
2018-12-25T13:36:17.986Z,12.23
2018-12-25T13:38:47.850Z,13.47
2018-12-25T13:41:17.547Z,13.03
2018-12-25T13:43:47.382Z,13.87
2018-12-25T13:46:17.045Z,16.30
2018-12-25T13:48:46.118Z,18.97
2018-12-25T13:51:15.162Z,31.37
2018-12-25T13:53:44.251Z,29.00
2018-12-25T13:56:13.314Z,23.60
2018-12-25T13:58:42.376Z,21.30
2018-12-25T14:01:11.498Z,19.70
2018-12-25T14:03:40.552Z,19.07
2018-12-25T14:06:09.611Z,21.73
2018-12-25T14:08:38.700Z,20.67
2018-12-25T14:11:07.762Z,28.90
2018-12-25T14:13:36.823Z,25.73
2018-12-25T14:16:05.923Z,19.83
2018-12-25T14:18:34.993Z,18.40
2018-12-25T14:21:04.058Z,23.17
2018-12-25T14:23:33.240Z,22.63
2018-12-25T14:26:02.314Z,26.23
2018-12-25T14:28:31.372Z,31.30
2018-12-25T14:31:00.465Z,72.13
2018-12-25T14:33:29.561Z,45.03
2018-12-25T14:35:58.623Z,56.20
2018-12-25T14:38:27.712Z,90.53
2018-12-25T14:40:56.790Z,128.70
2018-12-25T14:43:25.874Z,62.07
2018-12-25T14:45:55.020Z,92.90
2018-12-25T14:48:24.083Z,61.47
2018-12-25T14:50:53.143Z,33.60
2018-12-25T14:53:22.223Z,33.37
2018-12-25T14:55:51.279Z,28.33
2018-12-25T14:58:20.345Z,24.17
2018-12-25T15:00:49.528Z,22.00
2018-12-25T15:03:18.521Z,20.10
2018-12-25T15:05:47.574Z,21.57
2018-12-25T15:08:16.943Z,18.77
2018-12-25T15:10:46.003Z,17.10
2018-12-25T15:13:15.066Z,16.30
2018-12-25T15:15:44.150Z,13.43
2018-12-25T15:18:13.207Z,13.87
2018-12-25T15:20:42.263Z,14.47
2018-12-25T15:23:11.337Z,15.27
2018-12-25T15:25:40.391Z,17.40
2018-12-25T15:28:09.455Z,16.83
2018-12-25T15:30:38.563Z,18.07
2018-12-25T15:33:07.629Z,16.13
2018-12-25T15:35:36.695Z,14.63
2018-12-25T15:38:05.786Z,15.80
2018-12-25T15:40:34.852Z,16.83
2018-12-25T15:43:03.940Z,21.47
2018-12-25T15:45:33.034Z,22.83
2018-12-25T15:48:02.093Z,25.73
2018-12-25T15:50:31.173Z,28.43
2018-12-25T15:53:00.302Z,26.80
2018-12-25T15:55:29.371Z,22.77
2018-12-25T15:57:59.476Z,20.73
2018-12-25T16:00:28.564Z,25.03
2018-12-25T16:02:57.648Z,23.53
2018-12-25T16:05:26.727Z,24.17
2018-12-25T16:07:55.815Z,24.97
2018-12-25T16:10:24.881Z,29.23
2018-12-25T16:12:53.935Z,30.03
2018-12-25T16:15:23.166Z,27.67
2018-12-25T16:17:52.227Z,24.23
2018-12-25T16:20:21.290Z,23.90
2018-12-25T16:22:52.364Z,35.07
2018-12-25T16:25:19.414Z,28.23
2018-12-25T16:27:48.475Z,59.93
2018-12-25T16:30:17.565Z,29.80
2018-12-25T16:32:46.629Z,33.97
2018-12-25T16:35:15.683Z,34.40
2018-12-25T16:37:44.796Z,37.73
2018-12-25T16:40:13.856Z,33.10
2018-12-25T16:42:42.913Z,24.90
2018-12-25T16:45:11.997Z,21.27
2018-12-25T16:47:41.056Z,18.60
2018-12-25T16:50:10.115Z,20.13
2018-12-25T16:52:39.211Z,16.93
2018-12-25T16:55:08.272Z,17.03
2018-12-25T16:57:37.347Z,17.43
2018-12-25T17:00:06.433Z,15.70
2018-12-25T17:02:35.486Z,16.57
2018-12-25T17:05:04.536Z,16.40
2018-12-25T17:07:33.620Z,18.37
2018-12-25T17:10:02.690Z,21.70
2018-12-25T17:12:31.761Z,17.80
2018-12-25T17:15:00.853Z,17.43
2018-12-25T17:17:29.909Z,16.53
2018-12-25T17:19:58.957Z,14.40
2018-12-25T17:22:28.079Z,14.37
2018-12-25T17:24:57.134Z,15.60
2018-12-25T17:27:26.208Z,15.53
2018-12-25T17:29:55.302Z,13.37
2018-12-25T17:32:24.356Z,12.83
2018-12-25T17:34:53.423Z,14.80
2018-12-25T17:37:22.520Z,15.67
2018-12-25T17:39:51.596Z,17.77
2018-12-25T17:42:20.656Z,16.23
2018-12-25T17:44:49.783Z,16.63
2018-12-25T17:47:18.847Z,18.13
2018-12-25T17:49:47.911Z,16.03
2018-12-25T17:52:17.057Z,17.23
2018-12-25T17:54:46.103Z,18.70
2018-12-25T17:57:20.932Z,20.77
2018-12-25T17:59:49.977Z,23.13
2018-12-25T18:02:19.028Z,26.10
2018-12-25T18:04:48.130Z,33.47
2018-12-25T18:07:17.189Z,33.63
2018-12-25T18:09:46.250Z,32.27
2018-12-25T18:12:15.346Z,33.37
2018-12-25T18:14:44.420Z,38.23
2018-12-25T18:17:18.787Z,34.90
2018-12-25T18:19:44.582Z,30.10
2018-12-25T18:22:13.654Z,29.00
2018-12-25T18:24:42.718Z,24.87
2018-12-25T18:27:12.062Z,23.07
2018-12-25T18:29:41.132Z,21.73
2018-12-25T18:32:10.210Z,22.47
2018-12-25T18:34:39.305Z,20.27
2018-12-25T18:37:08.378Z,19.83
2018-12-25T18:39:37.444Z,25.90
2018-12-25T18:42:06.525Z,17.40
2018-12-25T18:44:35.576Z,18.47
2018-12-25T18:47:08.173Z,15.60
2018-12-25T18:49:37.237Z,14.17
2018-12-25T18:52:06.302Z,13.73
2018-12-25T18:54:35.409Z,13.47
2018-12-25T18:57:04.491Z,15.67
2018-12-25T18:59:33.548Z,12.70
2018-12-25T19:02:02.646Z,12.37
2018-12-25T19:04:31.744Z,13.43
2018-12-25T19:07:00.796Z,13.03
2018-12-25T19:09:29.916Z,14.73
2018-12-25T19:11:58.972Z,15.10
2018-12-25T19:14:28.045Z,14.20
2018-12-25T19:16:57.138Z,14.20
2018-12-25T19:19:26.212Z,15.30
2018-12-25T19:21:55.280Z,14.33
2018-12-25T19:24:24.391Z,13.37
2018-12-25T19:26:53.450Z,13.90
2018-12-25T19:29:22.514Z,14.33
2018-12-25T19:31:51.614Z,18.10
2018-12-25T19:34:20.693Z,15.90
2018-12-25T19:36:55.703Z,23.83
2018-12-25T19:39:24.756Z,15.43
2018-12-25T19:41:53.810Z,17.23
2018-12-25T19:44:22.892Z,12.93
2018-12-25T19:46:51.948Z,13.30
2018-12-25T19:49:21.001Z,11.53
2018-12-25T19:51:50.104Z,10.57
2018-12-25T19:54:19.173Z,13.93
2018-12-25T19:56:48.233Z,11.10
2018-12-25T19:59:17.321Z,9.57
2018-12-25T20:01:46.367Z,9.07
2018-12-25T20:04:18.990Z,9.70
2018-12-25T20:06:48.051Z,9.30
2018-12-25T20:09:19.028Z,9.00
2018-12-25T20:11:53.809Z,10.77
2018-12-25T20:14:27.521Z,13.50
2018-12-25T20:17:07.181Z,13.90
2018-12-25T20:19:38.899Z,15.40
2018-12-25T20:22:12.508Z,14.17
2018-12-25T20:24:52.666Z,12.13
2018-12-25T20:27:25.854Z,14.27
2018-12-25T20:29:58.498Z,12.23
2018-12-25T20:32:30.425Z,11.70
2018-12-25T20:35:08.313Z,11.00
2018-12-25T20:37:49.088Z,11.73
2018-12-25T20:40:18.188Z,11.13
2018-12-25T20:42:50.412Z,12.43
2018-12-25T20:45:29.326Z,11.77
2018-12-25T20:48:16.662Z,10.60
2018-12-25T20:50:52.295Z,13.50
2018-12-25T20:53:25.185Z,14.10
2018-12-25T20:56:08.864Z,16.73
2018-12-25T20:58:46.587Z,13.10
2018-12-25T21:01:26.476Z,13.30
2018-12-25T21:03:56.484Z,13.97
2018-12-25T21:06:31.415Z,10.30
2018-12-25T21:09:10.056Z,7.57
2018-12-25T21:11:42.058Z,9.17
2018-12-25T21:14:16.197Z,8.50
2018-12-25T21:16:51.860Z,7.73
2018-12-25T21:19:37.258Z,7.00
2018-12-25T21:22:08.114Z,5.80
2018-12-25T21:24:49.019Z,6.20
2018-12-25T21:27:39.383Z,7.03
2018-12-25T21:30:08.670Z,7.17
2018-12-25T21:32:37.748Z,5.33
2018-12-25T21:35:08.642Z,5.83
2018-12-25T21:37:37.723Z,5.83
2018-12-25T21:40:06.771Z,6.20
2018-12-25T21:42:35.814Z,6.30
2018-12-25T21:45:04.904Z,5.50
2018-12-25T21:47:33.968Z,6.20
2018-12-25T21:50:03.035Z,4.67
2018-12-25T21:52:32.140Z,7.53
2018-12-25T21:55:01.195Z,6.20
2018-12-25T21:57:30.259Z,7.23
2018-12-25T21:59:59.388Z,5.40
2018-12-25T22:02:28.497Z,7.00
2018-12-25T22:04:57.559Z,5.97
2018-12-25T22:10:25.575Z,6.20
2018-12-25T22:12:54.657Z,6.83
2018-12-25T22:15:23.710Z,6.70
2018-12-25T22:17:52.775Z,5.43
2018-12-25T22:20:21.848Z,6.07
2018-12-25T22:22:50.903Z,4.83
2018-12-25T22:25:26.899Z,5.73
2018-12-25T22:27:49.063Z,4.77
2018-12-25T22:30:18.218Z,4.97
2018-12-25T22:32:47.270Z,6.43
2018-12-25T22:35:16.365Z,5.60
2018-12-25T22:37:45.421Z,5.63
2018-12-25T22:40:14.475Z,4.80
2018-12-25T22:42:43.547Z,4.23
2018-12-25T22:45:12.597Z,4.27
2018-12-25T22:47:41.636Z,4.73
2018-12-25T22:50:10.808Z,4.07
2018-12-25T22:52:39.866Z,4.53
2018-12-25T22:55:08.912Z,6.13
2018-12-25T22:57:53.081Z,4.40
2018-12-25T23:00:22.129Z,5.00
2018-12-25T23:02:51.187Z,5.37
2018-12-25T23:05:20.681Z,5.20
2018-12-25T23:07:49.729Z,5.67
2018-12-25T23:10:18.783Z,5.80
2018-12-25T23:12:47.893Z,7.10
2018-12-25T23:15:16.945Z,5.33
2018-12-25T23:17:46.003Z,5.77
2018-12-25T23:20:15.164Z,5.47
2018-12-25T23:22:44.214Z,6.67
2018-12-25T23:25:13.275Z,5.17
2018-12-25T23:27:42.371Z,5.83
2018-12-25T23:30:11.407Z,5.90
2018-12-25T23:32:40.468Z,5.57
2018-12-25T23:35:09.701Z,5.07
2018-12-25T23:37:38.614Z,5.80
2018-12-25T23:40:07.670Z,5.13
2018-12-25T23:42:36.747Z,5.50
2018-12-25T23:45:05.789Z,7.40
2018-12-25T23:47:34.842Z,7.47
2018-12-25T23:50:03.963Z,4.00
2018-12-25T23:52:33.074Z,4.73
2018-12-25T23:55:02.121Z,4.57
2018-12-25T23:57:31.218Z,5.00
